Gene Autry, Oklahoma
Current Conditions -  °F | °C
As of 6:55 AM on Thursday 18 Dec 2014 (Local Time) from KADM Reporting Station
Haze Haze  
Wind Chill:   Ceiling: 300
Heat Index:   Visibility: 1mi
Dew Point:   Wind: 6mph
Humidity: 100%   Direction: 110°ESE
Pressure: 30.14"   Gusts: NA
Location:  34.28°N, 97.04°W
Report Text: KADM 181255Z 11005KT 1SM BR OVC003 04/04 A3014
Loading
Personal Weather Stations






























Interactive Weather Map New forecast layout! Learn more

10-Day Weather Forecast

Advertisements
Track Severe Weather on mobile